createdAt,value
2018-02-27T00:00:10.890Z,6.55
2018-02-27T00:01:16.529Z,5.50
2018-02-27T00:02:21.732Z,5.15
2018-02-27T00:03:26.214Z,5.00
2018-02-27T00:04:30.668Z,6.97
2018-02-27T00:05:35.897Z,5.05
2018-02-27T00:06:41.115Z,4.95
2018-02-27T00:07:45.550Z,4.85
2018-02-27T00:08:50.762Z,5.50
2018-02-27T00:09:55.207Z,4.87
2018-02-27T00:10:59.658Z,4.60
2018-02-27T00:12:04.106Z,4.37
2018-02-27T00:13:09.326Z,4.15
2018-02-27T00:14:13.753Z,5.43
2018-02-27T00:15:18.196Z,4.68
2018-02-27T00:16:22.669Z,4.68
2018-02-27T00:17:27.871Z,5.18
2018-02-27T00:18:32.316Z,5.00
2018-02-27T00:19:37.506Z,5.05
2018-02-27T00:20:41.947Z,4.60
2018-02-27T00:21:46.973Z,5.82
2018-02-27T00:22:52.168Z,5.00
2018-02-27T00:23:56.609Z,6.18
2018-02-27T00:25:01.809Z,5.10
2018-02-27T00:26:07.011Z,4.32
2018-02-27T00:27:11.474Z,5.25
2018-02-27T00:28:15.938Z,5.97
2018-02-27T00:29:20.367Z,5.03
2018-02-27T00:30:26.322Z,5.70
2018-02-27T00:31:30.773Z,5.72
2018-02-27T00:32:35.231Z,4.75
2018-02-27T00:33:39.670Z,4.47
2018-02-27T00:34:44.875Z,4.90
2018-02-27T00:35:49.333Z,5.43
2018-02-27T00:36:53.803Z,6.32
2018-02-27T00:37:59.019Z,5.50
2018-02-27T00:39:03.117Z,5.25
2018-02-27T00:40:07.628Z,5.15
2018-02-27T00:41:12.070Z,5.87
2018-02-27T00:42:16.512Z,4.95
2018-02-27T00:43:21.017Z,6.68
2018-02-27T00:44:26.409Z,5.40
2018-02-27T00:45:30.880Z,6.20
2018-02-27T00:46:35.317Z,5.50
2018-02-27T00:47:39.754Z,6.40
2018-02-27T00:48:44.210Z,5.25
2018-02-27T00:49:48.649Z,6.80
2018-02-27T00:50:53.093Z,5.40
2018-02-27T00:51:58.305Z,6.25
2018-02-27T00:53:02.734Z,6.45
2018-02-27T00:54:07.964Z,6.47
2018-02-27T00:55:13.170Z,5.10
2018-02-27T00:56:18.381Z,7.32
2018-02-27T00:57:22.806Z,6.12
2018-02-27T00:58:28.030Z,5.87
2018-02-27T00:59:32.493Z,6.37
2018-02-27T01:00:36.930Z,6.35
2018-02-27T01:01:41.362Z,6.03
2018-02-27T01:02:45.798Z,6.65
2018-02-27T01:03:51.010Z,6.68
2018-02-27T01:04:55.465Z,6.93
2018-02-27T01:05:59.701Z,5.80
2018-02-27T01:07:04.163Z,7.43
2018-02-27T01:08:09.375Z,8.45
2018-02-27T01:09:13.817Z,6.00
2018-02-27T01:10:18.286Z,7.72
2018-02-27T01:11:22.738Z,7.20
2018-02-27T01:12:27.736Z,7.20
2018-02-27T01:13:32.950Z,7.25
2018-02-27T01:14:38.256Z,7.30
2018-02-27T01:15:42.775Z,7.00
2018-02-27T01:16:47.206Z,6.10
2018-02-27T01:17:51.664Z,7.72
2018-02-27T01:18:56.097Z,6.45
2018-02-27T01:20:00.545Z,6.70
2018-02-27T01:21:05.010Z,7.32
2018-02-27T01:22:09.456Z,6.57
2018-02-27T01:23:13.894Z,6.05
2018-02-27T01:24:18.372Z,7.07
2018-02-27T01:25:22.813Z,6.97
2018-02-27T01:26:28.065Z,7.28
2018-02-27T01:27:32.504Z,6.32
2018-02-27T01:28:36.938Z,7.00
2018-02-27T01:29:41.374Z,6.53
2018-02-27T01:30:46.589Z,7.07
2018-02-27T01:31:51.051Z,7.05
2018-02-27T01:32:55.489Z,6.05
2018-02-27T01:33:59.934Z,5.75
2018-02-27T01:35:04.363Z,5.85
2018-02-27T01:36:08.805Z,7.03
2018-02-27T01:37:13.258Z,5.28
2018-02-27T01:38:18.470Z,7.05
2018-02-27T01:39:22.913Z,6.60
2018-02-27T01:40:28.105Z,5.90
2018-02-27T01:41:32.545Z,5.15
2018-02-27T01:42:37.781Z,6.32
2018-02-27T01:43:42.985Z,5.70
2018-02-27T01:44:48.195Z,5.40
2018-02-27T01:45:52.626Z,6.60
2018-02-27T01:46:57.125Z,6.07
2018-02-27T01:48:01.742Z,5.40
2018-02-27T01:49:06.180Z,5.75
2018-02-27T01:50:11.373Z,5.18
2018-02-27T01:51:16.413Z,5.62
2018-02-27T01:52:20.857Z,4.40
2018-02-27T01:53:26.078Z,5.65
2018-02-27T01:54:31.282Z,5.70
2018-02-27T01:55:35.714Z,5.53
2018-02-27T01:56:40.145Z,6.00
2018-02-27T01:57:44.584Z,4.97
2018-02-27T01:58:49.050Z,5.10
2018-02-27T01:59:54.256Z,6.00
2018-02-27T02:00:58.711Z,6.93
2018-02-27T02:02:03.150Z,5.55
2018-02-27T02:03:07.590Z,5.35
2018-02-27T02:04:12.165Z,4.37
2018-02-27T02:05:16.605Z,5.70
2018-02-27T02:06:21.041Z,5.28
2018-02-27T02:07:26.238Z,5.72
2018-02-27T02:08:30.677Z,6.28
2018-02-27T02:09:35.914Z,6.05
2018-02-27T02:10:41.121Z,5.93
2018-02-27T02:11:45.574Z,6.10
2018-02-27T02:12:50.027Z,5.45
2018-02-27T02:13:54.465Z,6.90
2018-02-27T02:14:59.702Z,5.97
2018-02-27T02:16:04.723Z,5.35
2018-02-27T02:17:09.933Z,27.40
2018-02-27T02:18:14.374Z,7.55
2018-02-27T02:19:18.813Z,6.50
2018-02-27T02:20:22.943Z,6.30
2018-02-27T02:21:27.386Z,6.15
2018-02-27T02:22:32.609Z,7.50
2018-02-27T02:23:37.481Z,5.10
2018-02-27T02:24:41.933Z,6.22
2018-02-27T02:25:46.401Z,5.62
2018-02-27T02:26:50.845Z,6.60
2018-02-27T02:27:56.085Z,7.00
2018-02-27T02:29:01.305Z,7.20
2018-02-27T02:30:06.516Z,5.22
2018-02-27T02:31:11.087Z,5.65
2018-02-27T02:32:16.274Z,6.15
2018-02-27T02:33:20.706Z,5.43
2018-02-27T02:34:25.916Z,5.18
2018-02-27T02:35:30.357Z,5.95
2018-02-27T02:36:34.832Z,5.75
2018-02-27T02:37:39.270Z,6.25
2018-02-27T02:38:44.458Z,5.75
2018-02-27T02:39:48.906Z,6.50
2018-02-27T02:40:54.125Z,6.62
2018-02-27T02:43:38.774Z,5.75
2018-02-27T02:44:44.072Z,5.15
2018-02-27T02:45:48.513Z,6.28
2018-02-27T02:46:52.957Z,4.80
2018-02-27T02:47:58.186Z,5.50
2018-02-27T02:49:03.399Z,5.50
2018-02-27T02:50:08.694Z,5.85
2018-02-27T02:51:13.138Z,6.15
2018-02-27T02:52:18.342Z,6.10
2018-02-27T02:53:22.800Z,5.55
2018-02-27T02:54:27.234Z,6.00
2018-02-27T02:55:31.668Z,5.93
2018-02-27T02:56:36.120Z,6.03
2018-02-27T02:57:41.322Z,5.25
2018-02-27T02:58:45.798Z,6.22
2018-02-27T02:59:50.245Z,6.70
2018-02-27T03:00:55.446Z,4.87
2018-02-27T03:02:00.110Z,6.43
2018-02-27T03:03:05.319Z,5.68
2018-02-27T03:04:10.545Z,5.72
2018-02-27T03:05:14.993Z,5.72
2018-02-27T03:06:19.436Z,5.30
2018-02-27T03:07:23.873Z,6.05
2018-02-27T03:08:28.315Z,6.10
2018-02-27T03:09:33.542Z,5.43
2018-02-27T03:10:38.747Z,5.65
2018-02-27T03:11:43.961Z,7.22
2018-02-27T03:12:48.397Z,6.43
2018-02-27T03:13:53.615Z,6.47
2018-02-27T03:14:58.078Z,6.22
2018-02-27T03:16:02.525Z,6.68
2018-02-27T03:17:06.965Z,5.90
2018-02-27T03:18:11.404Z,5.32
2018-02-27T03:19:15.837Z,6.25
2018-02-27T03:20:20.277Z,5.80
2018-02-27T03:21:24.729Z,5.47
2018-02-27T03:22:29.942Z,5.85
2018-02-27T03:23:35.222Z,5.03
2018-02-27T03:24:39.665Z,6.40
2018-02-27T03:25:44.139Z,6.65
2018-02-27T03:26:48.564Z,4.97
2018-02-27T03:27:53.005Z,5.90
2018-02-27T03:28:58.220Z,6.53
2018-02-27T03:30:02.668Z,5.85
2018-02-27T03:31:08.089Z,5.95
2018-02-27T03:32:13.329Z,6.30
2018-02-27T03:33:18.519Z,6.05
2018-02-27T03:34:22.950Z,5.72
2018-02-27T03:35:28.243Z,6.35
2018-02-27T03:36:32.718Z,6.95
2018-02-27T03:37:37.153Z,4.90
2018-02-27T03:38:41.581Z,5.78
2018-02-27T03:39:46.018Z,5.62
2018-02-27T03:40:50.453Z,6.93
2018-02-27T03:41:54.925Z,6.68
2018-02-27T03:42:59.362Z,5.47
2018-02-27T03:44:04.549Z,5.03
2018-02-27T03:45:08.993Z,5.50
2018-02-27T03:46:14.458Z,5.68
2018-02-27T03:47:18.929Z,6.80
2018-02-27T03:48:23.361Z,6.95
2018-02-27T03:49:28.558Z,5.70
2018-02-27T03:50:32.993Z,5.15
2018-02-27T03:51:38.279Z,4.85
2018-02-27T03:52:42.741Z,5.82
2018-02-27T03:53:47.949Z,5.35
2018-02-27T03:54:52.380Z,4.87
2018-02-27T03:55:57.585Z,4.95
2018-02-27T03:57:02.021Z,5.25
2018-02-27T03:58:06.500Z,5.70
2018-02-27T03:59:10.942Z,6.45
2018-02-27T04:00:15.717Z,5.97
2018-02-27T04:01:20.146Z,3.25
2018-02-27T04:02:24.589Z,4.80
2018-02-27T04:03:29.057Z,6.20
2018-02-27T04:04:33.502Z,6.95
2018-02-27T04:05:38.700Z,4.75
2018-02-27T04:06:43.154Z,5.53
2018-02-27T04:07:47.591Z,5.40
2018-02-27T04:08:52.056Z,6.05
2018-02-27T04:09:57.267Z,5.43
2018-02-27T04:11:01.706Z,4.90
2018-02-27T04:12:06.909Z,5.47
2018-02-27T04:13:11.350Z,5.65
2018-02-27T04:14:15.814Z,5.95
2018-02-27T04:15:20.066Z,5.30
2018-02-27T04:16:25.256Z,5.60
2018-02-27T04:17:31.205Z,4.85
2018-02-27T04:18:35.654Z,5.12
2018-02-27T04:19:40.125Z,6.07
2018-02-27T04:20:44.569Z,6.12
2018-02-27T04:21:49.002Z,3.90
2018-02-27T04:22:53.450Z,5.30
2018-02-27T04:23:57.901Z,6.07
2018-02-27T04:25:03.131Z,5.53
2018-02-27T04:26:08.334Z,5.07
2018-02-27T04:27:12.760Z,5.40
2018-02-27T04:28:17.983Z,5.82
2018-02-27T04:29:22.425Z,5.30
2018-02-27T04:30:26.890Z,4.65
2018-02-27T04:31:31.328Z,4.95
2018-02-27T04:32:36.532Z,5.18
2018-02-27T04:33:42.471Z,5.03
2018-02-27T04:34:46.900Z,4.93
2018-02-27T04:35:51.358Z,4.70
2018-02-27T04:36:55.809Z,5.40
2018-02-27T04:38:00.236Z,5.07
2018-02-27T04:39:04.787Z,4.45
2018-02-27T04:40:09.225Z,4.95
2018-02-27T04:41:13.676Z,5.95
2018-02-27T04:42:18.878Z,5.20
2018-02-27T04:43:23.329Z,6.00
2018-02-27T04:44:27.770Z,5.53
2018-02-27T04:45:32.220Z,4.97
2018-02-27T04:46:36.658Z,5.45
2018-02-27T04:47:41.857Z,5.65
2018-02-27T04:48:46.299Z,5.95
2018-02-27T04:49:51.498Z,4.95
2018-02-27T04:50:55.936Z,5.85
2018-02-27T04:52:00.413Z,5.20
2018-02-27T04:53:04.839Z,4.53
2018-02-27T04:54:10.049Z,5.30
2018-02-27T04:55:14.512Z,4.62
2018-02-27T04:56:18.984Z,5.07
2018-02-27T04:57:23.444Z,5.12
2018-02-27T04:58:27.882Z,4.90
2018-02-27T04:59:32.319Z,4.87
2018-02-27T05:00:36.755Z,5.10
2018-02-27T05:01:41.002Z,4.22
2018-02-27T05:02:45.462Z,5.65
2018-02-27T05:03:50.666Z,5.68
2018-02-27T05:04:56.618Z,6.50
2018-02-27T05:06:01.061Z,5.60
2018-02-27T05:07:05.528Z,5.93
2018-02-27T05:08:09.991Z,5.30
2018-02-27T05:09:14.424Z,4.87
2018-02-27T05:10:19.203Z,5.30
2018-02-27T05:11:24.394Z,5.15
2018-02-27T05:12:28.826Z,5.15
2018-02-27T05:13:34.054Z,4.65
2018-02-27T05:14:39.266Z,4.50
2018-02-27T05:15:43.989Z,4.75
2018-02-27T05:16:49.235Z,4.72
2018-02-27T05:17:54.768Z,4.30
2018-02-27T05:19:00.203Z,5.07
2018-02-27T05:20:04.327Z,4.65
2018-02-27T05:21:09.530Z,4.47
2018-02-27T05:22:14.734Z,4.93
2018-02-27T05:23:19.149Z,5.00
2018-02-27T05:24:23.608Z,5.12
2018-02-27T05:25:28.058Z,5.15
2018-02-27T05:26:32.514Z,4.60
2018-02-27T05:27:37.721Z,5.22
2018-02-27T05:28:42.149Z,6.12
2018-02-27T05:29:47.379Z,4.40
2018-02-27T05:30:52.606Z,5.75
2018-02-27T05:31:57.816Z,5.50
2018-02-27T05:33:02.269Z,5.70
2018-02-27T05:34:06.706Z,5.05
2018-02-27T05:35:11.298Z,5.07
2018-02-27T05:36:15.733Z,4.95
2018-02-27T05:37:20.184Z,4.70
2018-02-27T05:38:24.643Z,5.87
2018-02-27T05:39:29.074Z,5.25
2018-02-27T05:40:33.550Z,5.47
2018-02-27T05:41:37.993Z,5.10
2018-02-27T05:42:42.422Z,4.97
2018-02-27T05:43:46.843Z,5.95
2018-02-27T05:44:51.287Z,4.95
2018-02-27T05:45:55.749Z,5.70
2018-02-27T05:47:00.195Z,6.53
2018-02-27T05:48:05.389Z,5.40
2018-02-27T05:49:09.839Z,5.82
2018-02-27T05:50:15.040Z,4.93
2018-02-27T05:51:19.492Z,4.62
2018-02-27T05:52:23.930Z,5.70
2018-02-27T05:53:28.357Z,4.80
2018-02-27T05:54:32.809Z,4.80
2018-02-27T05:55:38.009Z,4.35
2018-02-27T05:56:42.477Z,5.20
2018-02-27T05:57:46.926Z,5.10
2018-02-27T05:58:51.365Z,6.05
2018-02-27T05:59:56.580Z,4.57
2018-02-27T06:01:01.783Z,6.20
2018-02-27T06:02:06.242Z,5.00
2018-02-27T06:03:10.695Z,6.00
2018-02-27T06:04:15.146Z,5.93
2018-02-27T06:05:20.354Z,6.00
2018-02-27T06:06:24.794Z,4.20
2018-02-27T06:07:30.018Z,5.20
2018-02-27T06:08:35.217Z,5.55
2018-02-27T06:09:41.156Z,5.30
2018-02-27T06:10:45.612Z,5.72
2018-02-27T06:11:50.798Z,5.47
2018-02-27T06:12:56.034Z,6.55
2018-02-27T06:14:00.478Z,6.22
2018-02-27T06:15:05.751Z,6.45
2018-02-27T06:16:10.191Z,5.90
2018-02-27T06:17:14.641Z,6.40
2018-02-27T06:18:19.297Z,5.62
2018-02-27T06:19:23.718Z,5.50
2018-02-27T06:20:28.161Z,5.50
2018-02-27T06:21:32.598Z,5.60
2018-02-27T06:22:37.106Z,5.18
2018-02-27T06:23:41.566Z,4.70
2018-02-27T06:24:46.006Z,6.15
2018-02-27T06:25:51.216Z,6.00
2018-02-27T06:26:55.653Z,5.12
2018-02-27T06:28:00.870Z,6.03
2018-02-27T06:29:05.359Z,6.37
2018-02-27T06:30:09.797Z,5.35
2018-02-27T06:31:14.998Z,6.35
2018-02-27T06:32:19.434Z,6.45
2018-02-27T06:33:24.646Z,5.75
2018-02-27T06:34:29.893Z,6.30
2018-02-27T06:35:35.103Z,6.55
2018-02-27T06:36:40.314Z,5.45
2018-02-27T06:37:44.742Z,6.40
2018-02-27T06:38:49.191Z,6.32
2018-02-27T06:39:53.669Z,6.40
2018-02-27T06:40:58.901Z,6.22
2018-02-27T06:42:04.123Z,7.12
2018-02-27T06:43:10.077Z,6.65
2018-02-27T06:44:15.293Z,7.25
2018-02-27T06:45:20.043Z,6.25
2018-02-27T06:46:25.236Z,5.35
2018-02-27T06:47:29.673Z,6.37
2018-02-27T06:48:34.881Z,5.05
2018-02-27T06:49:39.338Z,6.65
2018-02-27T06:50:43.808Z,6.47
2018-02-27T06:51:49.013Z,6.43
2018-02-27T06:52:53.529Z,6.97
2018-02-27T06:53:57.959Z,6.87
2018-02-27T06:55:02.428Z,6.55
2018-02-27T06:56:06.962Z,7.40
2018-02-27T06:57:11.393Z,5.53
2018-02-27T06:58:15.845Z,6.25
2018-02-27T06:59:20.277Z,5.97
2018-02-27T07:00:24.753Z,7.35
2018-02-27T07:01:29.397Z,6.10
2018-02-27T07:02:33.822Z,5.65
2018-02-27T07:03:38.265Z,6.65
2018-02-27T07:04:43.478Z,7.03
2018-02-27T07:05:47.913Z,7.55
2018-02-27T07:06:52.958Z,7.47
2018-02-27T07:07:57.408Z,7.47
2018-02-27T07:09:01.849Z,7.62
2018-02-27T07:10:07.050Z,6.72
2018-02-27T07:11:11.506Z,7.97
2018-02-27T07:12:16.728Z,7.82
2018-02-27T07:13:21.966Z,6.95
2018-02-27T07:14:27.162Z,7.47
2018-02-27T07:15:31.606Z,7.10
2018-02-27T07:16:36.058Z,8.25
2018-02-27T07:17:40.522Z,7.75
2018-02-27T07:18:45.725Z,7.22
2018-02-27T07:19:50.170Z,7.07
2018-02-27T07:20:55.377Z,7.10
2018-02-27T07:22:00.598Z,7.82
2018-02-27T07:23:04.855Z,7.72
2018-02-27T07:24:09.298Z,6.85
2018-02-27T07:25:13.725Z,6.20
2018-02-27T07:26:18.170Z,7.68
2018-02-27T07:27:22.602Z,6.65
2018-02-27T07:28:27.061Z,7.43
2018-02-27T07:29:31.503Z,7.20
2018-02-27T07:30:35.963Z,7.68
2018-02-27T07:31:40.412Z,7.53
2018-02-27T07:32:45.613Z,7.53
2018-02-27T07:33:50.080Z,6.47
2018-02-27T07:34:54.522Z,7.78
2018-02-27T07:35:58.966Z,8.55
2018-02-27T07:37:04.184Z,7.28
2018-02-27T07:38:08.630Z,8.95
2018-02-27T07:39:13.089Z,8.63
2018-02-27T07:40:18.302Z,8.45
2018-02-27T07:41:22.742Z,8.95
2018-02-27T07:42:27.181Z,8.13
2018-02-27T07:43:31.628Z,10.10
2018-02-27T07:44:36.102Z,9.27
2018-02-27T07:45:40.550Z,5.45
2018-02-27T07:46:45.002Z,10.13
2018-02-27T07:47:49.447Z,9.95
2018-02-27T07:48:53.906Z,11.02
2018-02-27T07:49:58.383Z,11.05
2018-02-27T07:51:02.818Z,9.35
2018-02-27T07:52:07.262Z,8.73
2018-02-27T07:53:12.465Z,8.23
2018-02-27T07:54:16.910Z,8.50
2018-02-27T07:55:22.138Z,7.80
2018-02-27T07:56:27.375Z,9.50
2018-02-27T07:57:31.821Z,10.65
2018-02-27T07:58:36.284Z,11.80
2018-02-27T07:59:41.508Z,11.57
2018-02-27T08:00:46.754Z,9.48
2018-02-27T08:01:51.206Z,10.52
2018-02-27T08:02:55.655Z,9.70
2018-02-27T08:04:00.886Z,10.55
2018-02-27T08:05:06.328Z,10.32
2018-02-27T08:06:11.565Z,12.02
2018-02-27T08:07:16.018Z,10.00
2018-02-27T08:08:20.473Z,12.77
2018-02-27T08:09:25.709Z,7.30
2018-02-27T08:10:30.158Z,11.40
2018-02-27T08:11:34.644Z,11.25
2018-02-27T08:12:39.090Z,12.68
2018-02-27T08:13:43.717Z,12.55
2018-02-27T08:14:48.178Z,14.02
2018-02-27T08:15:52.622Z,13.57
2018-02-27T08:16:57.097Z,13.48
2018-02-27T08:18:01.546Z,15.18
2018-02-27T08:19:06.209Z,11.95
2018-02-27T08:20:11.418Z,10.88
2018-02-27T08:21:15.870Z,13.70
2018-02-27T08:22:20.163Z,12.13
2018-02-27T08:23:25.400Z,13.25
2018-02-27T08:24:29.854Z,13.00
2018-02-27T08:25:34.309Z,12.88
2018-02-27T08:26:39.736Z,10.32
2018-02-27T08:27:44.424Z,13.80
2018-02-27T08:28:48.876Z,14.10
2018-02-27T08:29:54.093Z,14.85
2018-02-27T08:30:59.305Z,15.23
2018-02-27T08:32:03.760Z,13.57
2018-02-27T08:33:08.262Z,13.85
2018-02-27T08:34:12.713Z,14.15
2018-02-27T08:35:17.166Z,13.45
2018-02-27T08:36:22.383Z,14.75
2018-02-27T08:37:26.825Z,13.98
2018-02-27T08:38:31.289Z,16.00
2018-02-27T08:39:35.749Z,13.68
2018-02-27T08:40:40.194Z,12.70
2018-02-27T08:41:44.657Z,13.27
2018-02-27T08:42:49.877Z,11.27
2018-02-27T08:43:54.338Z,10.77
2018-02-27T08:44:58.778Z,13.57
2018-02-27T08:46:03.230Z,14.43
2018-02-27T08:47:07.673Z,13.93
2018-02-27T08:48:12.121Z,13.65
2018-02-27T08:49:16.604Z,13.15
2018-02-27T08:50:21.040Z,12.50
2018-02-27T08:51:25.501Z,14.60
2018-02-27T08:52:29.946Z,15.10
2018-02-27T08:53:34.394Z,15.27
2018-02-27T08:54:39.638Z,14.82
2018-02-27T08:55:44.096Z,13.50
2018-02-27T08:56:48.528Z,13.38
2018-02-27T08:57:53.741Z,14.13
2018-02-27T08:58:58.204Z,14.68
2018-02-27T09:00:02.661Z,13.20
2018-02-27T09:01:07.115Z,14.50
2018-02-27T09:02:12.315Z,15.50
2018-02-27T09:03:16.757Z,9.60
2018-02-27T09:04:21.958Z,11.95
2018-02-27T09:05:26.431Z,10.13
2018-02-27T09:06:30.888Z,13.02
2018-02-27T09:07:35.333Z,10.80
2018-02-27T09:08:39.773Z,12.05
2018-02-27T09:09:44.237Z,11.68
2018-02-27T09:10:49.462Z,12.63
2018-02-27T09:11:54.674Z,12.00
2018-02-27T09:12:59.895Z,12.15
2018-02-27T09:14:04.339Z,14.00
2018-02-27T09:15:08.458Z,13.13
2018-02-27T09:16:12.947Z,11.60
2018-02-27T09:17:18.171Z,11.95
2018-02-27T09:18:23.394Z,12.82
2018-02-27T09:19:28.614Z,13.48
2018-02-27T09:20:33.071Z,11.40
2018-02-27T09:21:37.598Z,12.30
2018-02-27T09:22:42.041Z,11.50
2018-02-27T09:23:46.495Z,12.18
2018-02-27T09:24:50.943Z,12.35
2018-02-27T09:25:55.410Z,12.13
2018-02-27T09:26:59.686Z,11.80
2018-02-27T09:28:04.138Z,13.02
2018-02-27T09:29:08.577Z,11.73
2018-02-27T09:30:13.022Z,12.20
2018-02-27T09:31:18.257Z,11.45
2018-02-27T09:32:23.500Z,12.35
2018-02-27T09:33:28.524Z,13.10
2018-02-27T09:34:33.733Z,11.12
2018-02-27T09:35:38.182Z,11.57
2018-02-27T09:36:42.621Z,11.52
2018-02-27T09:37:47.097Z,13.10
2018-02-27T09:38:51.611Z,12.35
2018-02-27T09:39:56.292Z,10.73
2018-02-27T09:41:00.741Z,11.25
2018-02-27T09:42:05.191Z,10.70
2018-02-27T09:43:09.673Z,10.80
2018-02-27T09:44:14.146Z,11.93
2018-02-27T09:45:19.409Z,10.82
2018-02-27T09:46:23.850Z,11.40
2018-02-27T09:47:28.291Z,9.60
2018-02-27T09:48:32.754Z,7.97
2018-02-27T09:49:37.174Z,9.15
2018-02-27T09:50:41.700Z,9.63
2018-02-27T09:51:46.138Z,10.80
2018-02-27T09:52:51.341Z,10.55
2018-02-27T09:53:55.819Z,9.90
2018-02-27T09:55:00.260Z,10.55
2018-02-27T09:56:04.712Z,10.70
2018-02-27T09:57:09.940Z,10.63
2018-02-27T09:58:15.141Z,9.77
2018-02-27T09:59:19.610Z,8.80
2018-02-27T10:00:24.049Z,9.60
2018-02-27T10:01:28.501Z,10.82
2018-02-27T10:02:33.705Z,10.50
2018-02-27T10:03:38.931Z,10.43
2018-02-27T10:04:43.416Z,10.75
2018-02-27T10:05:48.203Z,10.30
2018-02-27T10:06:52.645Z,10.50
2018-02-27T10:07:57.706Z,11.55
2018-02-27T10:09:02.149Z,10.70
2018-02-27T10:10:06.616Z,9.10
2018-02-27T10:11:11.109Z,10.20
2018-02-27T10:12:15.557Z,10.00
2018-02-27T10:13:20.757Z,9.35
2018-02-27T10:14:25.211Z,11.05
2018-02-27T10:15:30.438Z,8.52
2018-02-27T10:16:35.645Z,9.93
2018-02-27T10:17:40.085Z,9.63
2018-02-27T10:18:45.285Z,9.75
2018-02-27T10:19:50.495Z,9.30
2018-02-27T10:20:55.749Z,10.02
2018-02-27T10:22:00.965Z,10.85
2018-02-27T10:23:05.418Z,8.75
2018-02-27T10:24:10.650Z,9.50
2018-02-27T10:25:16.063Z,10.00
2018-02-27T10:26:21.297Z,9.10
2018-02-27T10:27:26.528Z,8.60
2018-02-27T10:28:31.946Z,8.85
2018-02-27T10:29:36.390Z,8.73
2018-02-27T10:30:40.908Z,7.70
2018-02-27T10:31:45.505Z,9.32
2018-02-27T10:32:49.960Z,8.30
2018-02-27T10:33:54.402Z,9.00
2018-02-27T10:34:58.844Z,6.20
2018-02-27T10:36:03.316Z,8.15
2018-02-27T10:37:07.987Z,9.45
2018-02-27T10:38:12.418Z,8.30
2018-02-27T10:39:16.866Z,9.05
2018-02-27T10:40:21.311Z,8.43
2018-02-27T10:41:25.766Z,8.63
2018-02-27T10:42:30.227Z,7.72
2018-02-27T10:43:34.683Z,9.27
2018-02-27T10:44:39.162Z,7.82
2018-02-27T10:45:43.609Z,10.10
2018-02-27T10:46:48.069Z,8.75
2018-02-27T10:47:52.546Z,8.10
2018-02-27T10:48:56.988Z,7.95
2018-02-27T10:50:01.699Z,8.90
2018-02-27T10:51:06.908Z,7.40
2018-02-27T10:52:11.346Z,8.93
2018-02-27T10:53:15.827Z,8.00
2018-02-27T10:54:21.009Z,6.45
2018-02-27T10:55:25.485Z,8.30
2018-02-27T10:56:30.700Z,8.95
2018-02-27T10:57:35.163Z,7.22
2018-02-27T10:58:39.625Z,8.38
2018-02-27T10:59:44.053Z,5.85
2018-02-27T11:00:51.137Z,8.45
2018-02-27T11:01:56.096Z,7.15
2018-02-27T11:03:00.543Z,8.73
2018-02-27T11:04:05.777Z,7.40
2018-02-27T11:05:10.984Z,7.93
2018-02-27T11:06:15.429Z,7.95
2018-02-27T11:07:19.878Z,8.40
2018-02-27T11:08:24.322Z,5.70
2018-02-27T11:09:28.794Z,6.62
2018-02-27T11:10:33.055Z,8.05
2018-02-27T11:11:38.286Z,8.38
2018-02-27T11:12:43.499Z,8.18
2018-02-27T11:13:47.947Z,5.93
2018-02-27T11:14:52.426Z,8.75
2018-02-27T11:15:56.892Z,8.13
2018-02-27T11:17:01.334Z,7.35
2018-02-27T11:18:05.797Z,7.70
2018-02-27T11:19:10.239Z,7.15
2018-02-27T11:20:14.698Z,6.40
2018-02-27T11:21:19.911Z,6.72
2018-02-27T11:22:24.342Z,7.18
2018-02-27T11:23:29.541Z,7.95
2018-02-27T11:24:33.981Z,9.10
2018-02-27T11:25:38.450Z,7.60
2018-02-27T11:26:42.894Z,7.82
2018-02-27T11:27:48.119Z,7.60
2018-02-27T11:28:53.342Z,7.40
2018-02-27T11:29:57.781Z,7.18
2018-02-27T11:31:02.242Z,6.95
2018-02-27T11:32:06.782Z,7.60
2018-02-27T11:33:11.994Z,6.70
2018-02-27T11:34:16.449Z,7.03
2018-02-27T11:35:20.895Z,5.97
2018-02-27T11:36:25.362Z,6.80
2018-02-27T11:37:29.805Z,7.90
2018-02-27T11:38:34.253Z,5.90
2018-02-27T11:39:38.695Z,6.50
2018-02-27T11:40:43.132Z,6.45
2018-02-27T11:41:47.603Z,7.97
2018-02-27T11:42:52.850Z,7.07
2018-02-27T11:43:57.478Z,6.00
2018-02-27T11:45:02.120Z,5.32
2018-02-27T11:46:06.558Z,5.90
2018-02-27T11:47:11.035Z,6.72
2018-02-27T11:48:15.478Z,5.70
2018-02-27T11:49:19.961Z,5.35
2018-02-27T11:50:24.587Z,6.47
2018-02-27T11:51:29.226Z,6.90
2018-02-27T11:52:34.461Z,6.25
2018-02-27T11:53:39.666Z,6.12
2018-02-27T11:54:44.106Z,5.65
2018-02-27T11:55:49.306Z,6.60
2018-02-27T11:56:53.741Z,5.78
2018-02-27T11:57:58.970Z,4.65
2018-02-27T11:59:04.174Z,4.90
2018-02-27T12:00:08.617Z,4.75
2018-02-27T12:01:13.822Z,6.05
2018-02-27T12:02:19.086Z,4.40
2018-02-27T12:03:23.689Z,5.00
2018-02-27T12:04:28.890Z,4.05
2018-02-27T12:05:33.331Z,3.62
2018-02-27T12:06:38.528Z,3.20
2018-02-27T12:07:42.978Z,3.10
2018-02-27T12:08:48.198Z,3.22
2018-02-27T12:09:53.075Z,2.70
2018-02-27T12:10:57.501Z,2.78
2018-02-27T12:12:01.966Z,2.90
2018-02-27T12:13:06.399Z,3.05
2018-02-27T12:14:10.881Z,2.87
2018-02-27T12:15:15.320Z,1.90
2018-02-27T12:16:19.579Z,1.92
2018-02-27T12:17:24.778Z,2.92
2018-02-27T12:18:30.723Z,2.55
2018-02-27T12:19:35.197Z,2.28
2018-02-27T12:20:39.612Z,3.00
2018-02-27T12:21:44.060Z,3.87
2018-02-27T12:22:48.497Z,3.97
2018-02-27T12:23:53.697Z,3.28
2018-02-27T12:24:58.160Z,3.30
2018-02-27T12:26:02.595Z,4.47
2018-02-27T12:27:07.051Z,4.22
2018-02-27T12:28:12.266Z,4.93
2018-02-27T12:29:16.829Z,3.92
2018-02-27T12:30:21.485Z,3.62
2018-02-27T12:31:25.917Z,2.40
2018-02-27T12:32:30.358Z,2.47
2018-02-27T12:33:34.792Z,3.30
2018-02-27T12:34:39.233Z,3.22
2018-02-27T12:35:43.685Z,2.90
2018-02-27T12:36:48.122Z,2.58
2018-02-27T12:37:52.558Z,2.80
2018-02-27T12:38:56.993Z,3.15
2018-02-27T12:40:02.201Z,3.20
2018-02-27T12:41:06.680Z,2.17
2018-02-27T12:42:11.104Z,3.20
2018-02-27T12:43:15.556Z,3.75
2018-02-27T12:44:20.754Z,3.80
2018-02-27T12:45:25.953Z,3.00
2018-02-27T12:46:30.417Z,4.30
2018-02-27T12:47:34.869Z,3.85
2018-02-27T12:48:39.301Z,2.70
2018-02-27T12:49:43.741Z,2.37
2018-02-27T12:50:48.170Z,4.03
2018-02-27T12:51:53.400Z,3.10
2018-02-27T12:52:58.605Z,4.32
2018-02-27T12:54:03.066Z,3.22
2018-02-27T12:55:07.509Z,3.37
2018-02-27T12:56:11.944Z,3.72
2018-02-27T12:57:16.402Z,3.90
2018-02-27T12:58:20.844Z,1.95
2018-02-27T12:59:25.275Z,2.37
2018-02-27T13:00:29.708Z,2.05
2018-02-27T13:01:34.141Z,2.45
2018-02-27T13:02:38.635Z,1.92
2018-02-27T13:03:43.084Z,3.33
2018-02-27T13:04:47.525Z,2.97
2018-02-27T13:05:51.977Z,3.05
2018-02-27T13:06:56.418Z,2.95
2018-02-27T13:08:00.898Z,3.35
2018-02-27T13:09:04.728Z,4.20
2018-02-27T13:10:09.162Z,2.20
2018-02-27T13:11:14.383Z,2.30
2018-02-27T13:12:18.826Z,2.45
2018-02-27T13:13:23.925Z,2.42
2018-02-27T13:14:28.536Z,2.00
2018-02-27T13:15:32.997Z,2.42
2018-02-27T13:16:37.439Z,2.65
2018-02-27T13:17:41.878Z,1.80
2018-02-27T13:18:46.363Z,2.10
2018-02-27T13:19:50.810Z,3.17
2018-02-27T13:20:56.026Z,1.52
2018-02-27T13:22:00.465Z,2.10
2018-02-27T13:23:04.923Z,1.90
2018-02-27T13:24:09.390Z,2.37
2018-02-27T13:25:13.824Z,2.70
2018-02-27T13:26:18.274Z,2.20
2018-02-27T13:27:22.727Z,2.00
2018-02-27T13:28:27.174Z,2.30
2018-02-27T13:29:31.634Z,2.90
2018-02-27T13:30:36.834Z,3.00
2018-02-27T13:31:42.058Z,2.60
2018-02-27T13:32:46.518Z,2.10
2018-02-27T13:33:50.942Z,1.55
2018-02-27T13:34:55.426Z,1.35
2018-02-27T13:36:00.630Z,1.65
2018-02-27T13:37:05.096Z,1.50
2018-02-27T13:38:09.547Z,2.53
2018-02-27T13:39:13.990Z,2.05
2018-02-27T13:40:18.454Z,2.67
2018-02-27T13:41:22.898Z,2.42
2018-02-27T13:42:27.923Z,3.22
2018-02-27T13:43:32.349Z,2.72
2018-02-27T13:44:36.817Z,2.58
2018-02-27T13:45:41.269Z,2.40
2018-02-27T13:46:45.713Z,2.42
2018-02-27T13:47:50.158Z,2.67
2018-02-27T13:48:54.680Z,2.30
2018-02-27T13:49:59.579Z,2.70
2018-02-27T13:51:03.715Z,2.40
2018-02-27T13:52:08.939Z,2.75
2018-02-27T13:53:13.370Z,2.60
2018-02-27T13:54:17.817Z,1.62
2018-02-27T13:55:22.263Z,2.65
2018-02-27T13:56:26.720Z,2.00
2018-02-27T13:57:31.145Z,2.97
2018-02-27T13:58:35.594Z,2.58
2018-02-27T13:59:40.036Z,3.55
2018-02-27T14:00:44.482Z,3.45
2018-02-27T14:01:48.950Z,2.75
2018-02-27T14:02:54.154Z,2.28
2018-02-27T14:03:58.407Z,2.05
2018-02-27T14:05:02.836Z,2.40
2018-02-27T14:06:08.233Z,2.70
2018-02-27T14:07:13.498Z,4.22
2018-02-27T14:08:17.916Z,4.03
2018-02-27T14:09:22.357Z,3.42
2018-02-27T14:10:26.798Z,3.08
2018-02-27T14:11:31.246Z,3.25
2018-02-27T14:12:35.707Z,2.85
2018-02-27T14:13:40.918Z,3.83
2018-02-27T14:14:45.361Z,2.60
2018-02-27T14:15:49.916Z,2.90
2018-02-27T14:16:54.363Z,3.50
2018-02-27T14:17:59.673Z,2.62